createdAt,value
2018-01-14T00:00:18.364Z,0.52
2018-01-14T00:01:46.343Z,0.50
2018-01-14T00:03:13.444Z,0.54
2018-01-14T00:04:40.667Z,0.56
2018-01-14T00:06:07.762Z,0.55
2018-01-14T00:07:34.763Z,0.57
2018-01-14T00:09:01.563Z,0.59
2018-01-14T00:10:27.604Z,0.59
2018-01-14T00:11:54.676Z,0.58
2018-01-14T00:13:22.799Z,0.58
2018-01-14T00:14:49.888Z,0.60
2018-01-14T00:16:16.891Z,0.60
2018-01-14T00:17:43.935Z,0.58
2018-01-14T00:19:10.020Z,0.55
2018-01-14T00:20:38.140Z,0.51
2018-01-14T00:22:04.183Z,0.52
2018-01-14T00:23:31.260Z,0.53
2018-01-14T00:24:59.291Z,0.56
2018-01-14T00:26:26.173Z,0.59
2018-01-14T00:27:52.020Z,0.60
2018-01-14T00:29:20.172Z,0.56
2018-01-14T00:30:46.338Z,0.57
2018-01-14T00:32:14.435Z,0.57
2018-01-14T00:33:41.454Z,0.55
2018-01-14T00:35:07.480Z,0.56
2018-01-14T00:36:34.355Z,0.56
2018-01-14T00:38:01.441Z,0.55
2018-01-14T00:39:29.469Z,0.49
2018-01-14T00:40:56.355Z,0.50
2018-01-14T00:42:25.330Z,0.50
2018-01-14T00:43:49.331Z,0.51
2018-01-14T00:45:17.479Z,0.53
2018-01-14T00:46:44.549Z,0.52
2018-01-14T00:48:11.578Z,0.52
2018-01-14T00:49:37.576Z,0.55
2018-01-14T00:51:05.718Z,0.53
2018-01-14T00:52:31.687Z,0.53
2018-01-14T00:53:59.666Z,0.58
2018-01-14T00:55:25.885Z,0.58
2018-01-14T00:56:53.067Z,0.59
2018-01-14T00:58:20.101Z,0.58
2018-01-14T00:59:48.299Z,0.54
2018-01-14T01:01:15.370Z,0.52
2018-01-14T01:02:42.507Z,0.51
2018-01-14T01:04:08.546Z,0.48
2018-01-14T01:05:35.726Z,0.47
2018-01-14T01:07:03.895Z,0.43
2018-01-14T01:08:30.985Z,0.43
2018-01-14T01:09:57.641Z,0.45
2018-01-14T01:11:24.796Z,0.49
2018-01-14T01:12:51.972Z,0.49
2018-01-14T01:14:19.011Z,0.49
2018-01-14T01:15:46.099Z,0.47
2018-01-14T01:17:12.304Z,0.48
2018-01-14T01:18:40.387Z,0.50
2018-01-14T01:20:06.144Z,0.48
2018-01-14T01:21:33.227Z,0.43
2018-01-14T01:23:01.370Z,0.44
2018-01-14T01:24:27.583Z,0.44
2018-01-14T01:25:54.354Z,0.40
2018-01-14T01:27:21.536Z,0.41
2018-01-14T01:28:49.403Z,0.40
2018-01-14T01:30:16.351Z,0.40
2018-01-14T01:31:43.461Z,0.41
2018-01-14T01:33:09.706Z,0.41
2018-01-14T01:34:37.893Z,0.43
2018-01-14T01:36:04.936Z,0.46
2018-01-14T01:37:31.174Z,0.45
2018-01-14T01:38:59.177Z,0.43
2018-01-14T01:40:25.957Z,0.45
2018-01-14T01:41:53.133Z,0.46
2018-01-14T01:43:20.193Z,0.47
2018-01-14T01:44:46.312Z,0.49
2018-01-14T01:46:13.325Z,0.50
2018-01-14T01:47:40.377Z,0.51
2018-01-14T01:49:08.573Z,0.51
2018-01-14T01:50:35.584Z,0.52
2018-01-14T01:52:01.670Z,0.51
2018-01-14T01:53:29.702Z,0.51
2018-01-14T01:54:56.713Z,0.53
2018-01-14T01:56:22.748Z,0.54
2018-01-14T01:57:49.998Z,0.55
2018-01-14T01:59:18.047Z,0.55
2018-01-14T02:00:44.127Z,0.51
2018-01-14T02:02:11.210Z,0.52
2018-01-14T02:03:39.318Z,0.50
2018-01-14T02:05:06.493Z,0.50
2018-01-14T02:06:33.728Z,0.49
2018-01-14T02:08:00.748Z,0.50
2018-01-14T02:09:27.726Z,0.50
2018-01-14T02:10:53.778Z,0.54
2018-01-14T02:12:21.806Z,0.53
2018-01-14T02:13:48.511Z,0.52
2018-01-14T02:15:15.649Z,0.52
2018-01-14T02:16:42.737Z,0.51
2018-01-14T02:18:08.844Z,0.53
2018-01-14T02:19:36.943Z,0.52
2018-01-14T02:21:03.856Z,0.51
2018-01-14T02:22:29.941Z,0.54
2018-01-14T02:23:58.007Z,0.55
2018-01-14T02:25:25.036Z,0.54
2018-01-14T02:26:52.171Z,0.54
2018-01-14T02:28:19.456Z,0.54
2018-01-14T02:29:46.490Z,0.53
2018-01-14T02:31:13.433Z,0.53
2018-01-14T02:32:40.553Z,0.52
2018-01-14T02:34:07.722Z,0.51
2018-01-14T02:35:34.649Z,0.50
2018-01-14T02:37:01.515Z,0.49
2018-01-14T02:38:27.329Z,0.47
2018-01-14T02:39:55.419Z,0.48
2018-01-14T02:41:22.449Z,0.49
2018-01-14T02:42:48.455Z,0.48
2018-01-14T02:44:15.395Z,0.47
2018-01-14T02:45:42.545Z,0.47
2018-01-14T02:47:10.581Z,0.48
2018-01-14T02:48:37.643Z,0.50
2018-01-14T02:50:03.841Z,0.50
2018-01-14T02:51:31.889Z,0.51
2018-01-14T02:52:59.003Z,0.49
2018-01-14T02:54:25.581Z,0.50
2018-01-14T02:55:52.757Z,0.50
2018-01-14T02:57:19.902Z,0.51
2018-01-14T02:58:45.933Z,0.51
2018-01-14T03:00:14.028Z,0.49
2018-01-14T03:01:41.205Z,0.50
2018-01-14T03:03:08.209Z,0.50
2018-01-14T03:04:35.372Z,0.52
2018-01-14T03:06:01.376Z,0.52
2018-01-14T03:07:29.211Z,0.50
2018-01-14T03:08:56.222Z,0.51
2018-01-14T03:10:22.526Z,0.50
2018-01-14T03:11:50.577Z,0.51
2018-01-14T03:13:16.703Z,0.52
2018-01-14T03:14:44.810Z,0.52
2018-01-14T03:16:10.851Z,0.52
2018-01-14T03:17:38.997Z,0.55
2018-01-14T03:19:06.074Z,0.57
2018-01-14T03:20:32.190Z,0.57
2018-01-14T03:22:00.318Z,0.54
2018-01-14T03:23:27.374Z,0.52
2018-01-14T03:24:53.412Z,0.51
2018-01-14T03:26:21.513Z,0.53
2018-01-14T03:27:48.730Z,0.54
2018-01-14T03:29:15.826Z,0.53
2018-01-14T03:30:41.868Z,0.52
2018-01-14T03:32:08.949Z,0.52
2018-01-14T03:33:36.928Z,0.54
2018-01-14T03:35:03.962Z,0.58
2018-01-14T03:36:30.895Z,0.59
2018-01-14T03:37:57.075Z,0.57
2018-01-14T03:39:25.182Z,0.58
2018-01-14T03:40:52.170Z,0.57
2018-01-14T03:42:19.258Z,0.60
2018-01-14T03:43:45.247Z,0.62
2018-01-14T03:45:12.309Z,0.59
2018-01-14T03:46:40.426Z,0.59
2018-01-14T03:48:07.549Z,0.59
2018-01-14T03:49:33.723Z,0.60
2018-01-14T03:51:01.711Z,0.59
2018-01-14T03:52:28.710Z,0.59
2018-01-14T03:53:54.416Z,0.57
2018-01-14T03:55:22.523Z,0.56
2018-01-14T03:56:48.648Z,0.58
2018-01-14T03:58:15.515Z,0.58
2018-01-14T03:59:42.539Z,0.57
2018-01-14T04:01:09.493Z,0.58
2018-01-14T04:02:37.667Z,0.59
2018-01-14T04:04:03.698Z,0.59
2018-01-14T04:05:31.729Z,0.57
2018-01-14T04:06:58.850Z,0.58
2018-01-14T04:08:24.813Z,0.56
2018-01-14T04:09:51.598Z,0.55
2018-01-14T04:11:19.490Z,0.55
2018-01-14T04:12:46.575Z,0.52
2018-01-14T04:14:13.652Z,0.53
2018-01-14T04:15:40.844Z,0.53
2018-01-14T04:17:07.837Z,0.54
2018-01-14T04:18:33.862Z,0.55
2018-01-14T04:20:01.857Z,0.56
2018-01-14T04:21:27.978Z,0.54
2018-01-14T04:22:55.958Z,0.51
2018-01-14T04:24:23.107Z,0.52
2018-01-14T04:25:50.062Z,0.51
2018-01-14T04:27:17.225Z,0.51
2018-01-14T04:28:44.295Z,0.49
2018-01-14T04:30:11.314Z,0.49
2018-01-14T04:31:37.202Z,0.48
2018-01-14T04:33:04.201Z,0.48
2018-01-14T04:34:31.250Z,0.50
2018-01-14T04:35:58.074Z,0.50
2018-01-14T04:37:24.983Z,0.49
2018-01-14T04:38:52.061Z,0.45
2018-01-14T04:40:20.270Z,0.43
2018-01-14T04:41:47.292Z,0.44
2018-01-14T04:43:14.380Z,0.47
2018-01-14T04:44:41.381Z,0.49
2018-01-14T04:46:08.507Z,0.50
2018-01-14T04:47:34.431Z,0.51
2018-01-14T04:49:02.641Z,0.50
2018-01-14T04:50:28.752Z,0.47
2018-01-14T04:51:55.624Z,0.47
2018-01-14T04:53:23.891Z,0.48
2018-01-14T04:54:51.037Z,0.44
2018-01-14T04:56:17.057Z,0.46
2018-01-14T04:57:44.984Z,0.49
2018-01-14T04:59:11.107Z,0.49
2018-01-14T05:00:38.175Z,0.50
2018-01-14T05:02:05.392Z,0.51
2018-01-14T05:03:33.525Z,0.52
2018-01-14T05:05:00.466Z,0.50
2018-01-14T05:06:26.411Z,0.49
2018-01-14T05:07:54.670Z,0.49
2018-01-14T05:09:20.627Z,0.48
2018-01-14T05:10:48.769Z,0.45
2018-01-14T05:12:15.744Z,0.43
2018-01-14T05:13:41.838Z,0.44
2018-01-14T05:15:10.058Z,0.41
2018-01-14T05:16:37.216Z,0.41
2018-01-14T05:18:03.242Z,0.38
2018-01-14T05:19:31.115Z,0.36
2018-01-14T05:20:57.177Z,0.32
2018-01-14T05:22:25.286Z,0.28
2018-01-14T05:23:52.441Z,0.25
2018-01-14T05:25:19.567Z,0.23
2018-01-14T05:26:45.661Z,0.20
2018-01-14T05:28:13.621Z,0.16
2018-01-14T05:29:40.522Z,0.13
2018-01-14T05:31:06.558Z,0.10
2018-01-14T05:32:34.583Z,0.06
2018-01-14T05:34:01.603Z,0.04
2018-01-14T05:35:28.625Z,0.02
2018-01-14T05:36:55.370Z,-0.04
2018-01-14T05:38:22.542Z,-0.04
2018-01-14T05:39:49.607Z,-0.06
2018-01-14T05:41:16.796Z,-0.07
2018-01-14T05:42:43.681Z,-0.07
2018-01-14T05:44:09.733Z,-0.08
2018-01-14T05:45:36.956Z,-0.12
2018-01-14T05:47:05.007Z,-0.13
2018-01-14T05:48:31.890Z,-0.18
2018-01-14T05:49:58.027Z,-0.23
2018-01-14T05:51:24.967Z,-0.24
2018-01-14T05:52:52.245Z,-0.28
2018-01-14T05:54:20.136Z,-0.30
2018-01-14T05:55:46.189Z,-0.32
2018-01-14T05:57:14.370Z,-0.31
2018-01-14T05:58:40.445Z,-0.30
2018-01-14T06:00:08.510Z,-0.33
2018-01-14T06:01:34.752Z,-0.36
2018-01-14T06:03:01.884Z,-0.37
2018-01-14T06:04:29.908Z,-0.41
2018-01-14T06:05:55.742Z,-0.41
2018-01-14T06:07:23.831Z,-0.39
2018-01-14T06:08:50.937Z,-0.41
2018-01-14T06:10:18.137Z,-0.43
2018-01-14T06:11:44.296Z,-0.43
2018-01-14T06:13:12.496Z,-0.46
2018-01-14T06:14:39.488Z,-0.49
2018-01-14T06:16:05.518Z,-0.51
2018-01-14T06:17:33.780Z,-0.52
2018-01-14T06:18:59.917Z,-0.55
2018-01-14T06:20:26.814Z,-0.58
2018-01-14T06:21:54.912Z,-0.59
2018-01-14T06:23:20.952Z,-0.62
2018-01-14T06:24:49.020Z,-0.62
2018-01-14T06:26:16.052Z,-0.67
2018-01-14T06:27:41.848Z,-0.67
2018-01-14T06:29:09.951Z,-0.69
2018-01-14T06:30:37.038Z,-0.72
2018-01-14T06:32:04.213Z,-0.72
2018-01-14T06:33:31.114Z,-0.72
2018-01-14T06:34:56.920Z,-0.71
2018-01-14T06:36:24.742Z,-0.73
2018-01-14T06:37:51.664Z,-0.78
2018-01-14T06:39:18.622Z,-0.80
2018-01-14T06:40:45.705Z,-0.77
2018-01-14T06:42:12.777Z,-0.77
2018-01-14T06:43:39.786Z,-0.78
2018-01-14T06:45:06.838Z,-0.79
2018-01-14T06:46:32.734Z,-0.80
2018-01-14T06:47:59.846Z,-0.81
2018-01-14T06:49:27.935Z,-0.83
2018-01-14T06:50:54.917Z,-0.84
2018-01-14T06:52:21.932Z,-0.84
2018-01-14T06:53:49.047Z,-0.85
2018-01-14T06:55:16.032Z,-0.84
2018-01-14T06:56:43.111Z,-0.83
2018-01-14T06:58:09.228Z,-0.81
2018-01-14T06:59:37.315Z,-0.84
2018-01-14T07:01:04.286Z,-0.85
2018-01-14T07:02:31.200Z,-0.87
2018-01-14T07:03:57.042Z,-0.88
2018-01-14T07:05:25.118Z,-0.88
2018-01-14T07:06:51.195Z,-0.89
2018-01-14T07:08:19.218Z,-0.89
2018-01-14T07:09:45.109Z,-0.90
2018-01-14T07:11:13.194Z,-0.91
2018-01-14T07:12:40.254Z,-0.92
2018-01-14T07:14:07.182Z,-0.93
2018-01-14T07:15:33.295Z,-0.93
2018-01-14T07:17:01.353Z,-0.94
2018-01-14T07:18:26.985Z,-0.91
2018-01-14T07:19:55.215Z,-0.91
2018-01-14T07:21:22.235Z,-0.92
2018-01-14T07:22:49.318Z,-0.95
2018-01-14T07:24:16.134Z,-0.96
2018-01-14T07:25:43.091Z,-0.94
2018-01-14T07:27:09.217Z,-0.92
2018-01-14T07:28:37.274Z,-0.93
2018-01-14T07:30:03.044Z,-0.93
2018-01-14T07:31:30.093Z,-0.95
2018-01-14T07:32:56.957Z,-0.95
2018-01-14T07:34:24.029Z,-0.96
2018-01-14T07:35:52.135Z,-0.96
2018-01-14T07:37:18.260Z,-0.94
2018-01-14T07:38:45.311Z,-0.94
2018-01-14T07:40:13.538Z,-0.95
2018-01-14T07:41:40.767Z,-0.94
2018-01-14T07:43:07.995Z,-0.97
2018-01-14T07:44:35.059Z,-0.97
2018-01-14T07:46:00.967Z,-0.97
2018-01-14T07:47:29.170Z,-0.96
2018-01-14T07:48:55.167Z,-0.97
2018-01-14T07:50:23.248Z,-0.99
2018-01-14T07:51:50.195Z,-0.98
2018-01-14T07:53:17.259Z,-0.99
2018-01-14T07:54:44.357Z,-0.98
2018-01-14T07:56:11.403Z,-1.00
2018-01-14T07:57:37.489Z,-1.00
2018-01-14T07:59:04.429Z,-1.02
2018-01-14T08:00:32.459Z,-1.02
2018-01-14T08:01:58.504Z,-1.02
2018-01-14T08:03:26.475Z,-1.03
2018-01-14T08:04:53.540Z,-1.03
2018-01-14T08:06:19.382Z,-1.01
2018-01-14T08:07:47.414Z,-1.02
2018-01-14T08:09:13.310Z,-1.01
2018-01-14T08:10:40.140Z,-1.01
2018-01-14T08:12:07.307Z,-1.02
2018-01-14T08:13:35.210Z,-1.04
2018-01-14T08:15:01.019Z,-1.03
2018-01-14T08:16:28.947Z,-1.04
2018-01-14T08:17:54.820Z,-1.03
2018-01-14T08:19:22.828Z,-1.01
2018-01-14T08:20:48.766Z,-0.99
2018-01-14T08:22:15.941Z,-0.99
2018-01-14T08:23:43.376Z,-0.98
2018-01-14T08:25:11.297Z,-0.95
2018-01-14T08:26:38.128Z,-0.95
2018-01-14T08:28:04.151Z,-0.94
2018-01-14T08:29:32.255Z,-0.93
2018-01-14T08:30:58.366Z,-0.94
2018-01-14T08:32:26.034Z,-0.94
2018-01-14T08:33:52.252Z,-0.94
2018-01-14T08:35:19.441Z,-0.94
2018-01-14T08:36:49.511Z,-0.93
2018-01-14T08:38:13.528Z,-0.93
2018-01-14T08:39:41.547Z,-0.93
2018-01-14T08:41:08.774Z,-0.91
2018-01-14T08:42:34.894Z,-0.91
2018-01-14T08:44:03.041Z,-0.91
2018-01-14T08:45:29.991Z,-0.91
2018-01-14T08:46:57.079Z,-0.89
2018-01-14T08:48:23.886Z,-0.87
2018-01-14T08:49:50.767Z,-0.87
2018-01-14T08:51:17.965Z,-0.85
2018-01-14T08:52:44.234Z,-0.85
2018-01-14T08:54:11.327Z,-0.84
2018-01-14T08:55:38.389Z,-0.82
2018-01-14T08:57:06.327Z,-0.80
2018-01-14T08:58:33.308Z,-0.75
2018-01-14T09:00:00.301Z,-0.73
2018-01-14T09:01:27.211Z,-0.70
2018-01-14T09:02:54.384Z,-0.72
2018-01-14T09:04:20.673Z,-0.72
2018-01-14T09:05:48.755Z,-0.73
2018-01-14T09:07:15.709Z,-0.74
2018-01-14T09:08:42.724Z,-0.75
2018-01-14T09:10:09.869Z,-0.75
2018-01-14T09:11:36.980Z,-0.72
2018-01-14T09:13:02.951Z,-0.71
2018-01-14T09:14:31.013Z,-0.70
2018-01-14T09:15:58.076Z,-0.70
2018-01-14T09:17:24.063Z,-0.68
2018-01-14T09:18:52.090Z,-0.65
2018-01-14T09:20:19.147Z,-0.62
2018-01-14T09:21:45.956Z,-0.61
2018-01-14T09:23:12.664Z,-0.64
2018-01-14T09:24:39.644Z,-0.63
2018-01-14T09:26:05.570Z,-0.62
2018-01-14T09:27:32.514Z,-0.58
2018-01-14T09:29:00.566Z,-0.61
2018-01-14T09:30:27.675Z,-0.59
2018-01-14T09:31:54.703Z,-0.57
2018-01-14T09:33:21.661Z,-0.58
2018-01-14T09:34:48.803Z,-0.56
2018-01-14T09:36:14.961Z,-0.56
2018-01-14T09:37:41.981Z,-0.54
2018-01-14T09:39:09.017Z,-0.54
2018-01-14T09:40:37.110Z,-0.56
2018-01-14T09:42:03.064Z,-0.56
2018-01-14T09:43:31.109Z,-0.58
2018-01-14T09:44:57.077Z,-0.55
2018-01-14T09:46:25.021Z,-0.52
2018-01-14T09:47:51.862Z,-0.49
2018-01-14T09:49:18.099Z,-0.52
2018-01-14T09:50:46.051Z,-0.54
2018-01-14T09:52:13.234Z,-0.51
2018-01-14T09:53:40.346Z,-0.48
2018-01-14T09:55:07.464Z,-0.44
2018-01-14T09:56:33.773Z,-0.47
2018-01-14T09:58:00.761Z,-0.47
2018-01-14T09:59:27.968Z,-0.46
2018-01-14T10:00:54.905Z,-0.49
2018-01-14T10:02:22.990Z,-0.49
2018-01-14T10:03:50.066Z,-0.50
2018-01-14T10:05:17.075Z,-0.50
2018-01-14T10:06:44.128Z,-0.51
2018-01-14T10:08:11.300Z,-0.50
2018-01-14T10:09:37.300Z,-0.50
2018-01-14T10:11:05.391Z,-0.50
2018-01-14T10:12:32.406Z,-0.47
2018-01-14T10:13:59.348Z,-0.43
2018-01-14T10:15:26.351Z,-0.39
2018-01-14T10:16:53.497Z,-0.34
2018-01-14T10:18:20.528Z,-0.31
2018-01-14T10:19:46.589Z,-0.31
2018-01-14T10:21:14.800Z,-0.34
2018-01-14T10:22:41.967Z,-0.34
2018-01-14T10:24:08.064Z,-0.34
2018-01-14T10:25:36.232Z,-0.34
2018-01-14T10:27:03.278Z,-0.33
2018-01-14T10:28:29.429Z,-0.31
2018-01-14T10:29:57.585Z,-0.30
2018-01-14T10:31:24.616Z,-0.30
2018-01-14T10:32:51.760Z,-0.29
2018-01-14T10:34:18.834Z,-0.25
2018-01-14T10:35:46.062Z,-0.25
2018-01-14T10:37:13.248Z,-0.23
2018-01-14T10:38:39.245Z,-0.22
2018-01-14T10:40:06.168Z,-0.23
2018-01-14T10:41:33.075Z,-0.22
2018-01-14T10:43:00.145Z,-0.17
2018-01-14T10:44:28.033Z,-0.16
2018-01-14T10:45:55.111Z,-0.18
2018-01-14T10:47:21.076Z,-0.16
2018-01-14T10:48:49.250Z,-0.18
2018-01-14T10:50:16.386Z,-0.19
2018-01-14T10:51:42.474Z,-0.22
2018-01-14T10:53:09.538Z,-0.19
2018-01-14T10:54:36.663Z,-0.20
2018-01-14T10:56:04.863Z,-0.21
2018-01-14T10:57:31.833Z,-0.19
2018-01-14T10:58:58.928Z,-0.17
2018-01-14T11:00:25.851Z,-0.19
2018-01-14T11:01:51.941Z,-0.20
2018-01-14T11:03:20.075Z,-0.19
2018-01-14T11:04:47.255Z,-0.21
2018-01-14T11:06:14.355Z,-0.24
2018-01-14T11:07:41.453Z,-0.28
2018-01-14T11:09:07.394Z,-0.26
2018-01-14T11:10:35.450Z,-0.22
2018-01-14T11:12:01.677Z,-0.21
2018-01-14T11:13:29.522Z,-0.20
2018-01-14T11:14:55.553Z,-0.18
2018-01-14T11:16:22.657Z,-0.17
2018-01-14T11:17:49.440Z,-0.17
2018-01-14T11:19:17.238Z,-0.20
2018-01-14T11:20:43.352Z,-0.20
2018-01-14T11:22:11.405Z,-0.19
2018-01-14T11:23:38.625Z,-0.18
2018-01-14T11:25:05.717Z,-0.18
2018-01-14T11:26:32.790Z,-0.16
2018-01-14T11:27:59.876Z,-0.16
2018-01-14T11:29:26.927Z,-0.14
2018-01-14T11:30:53.092Z,-0.17
2018-01-14T11:32:20.167Z,-0.18
2018-01-14T11:33:48.079Z,-0.18
2018-01-14T11:35:14.108Z,-0.17
2018-01-14T11:36:41.115Z,-0.14
2018-01-14T11:38:08.289Z,-0.12
2018-01-14T11:39:36.327Z,-0.08
2018-01-14T11:41:02.340Z,-0.02
2018-01-14T11:42:30.517Z,0.00
2018-01-14T11:43:57.613Z,0.07
2018-01-14T11:45:24.846Z,0.10
2018-01-14T11:46:51.932Z,0.10
2018-01-14T11:48:18.964Z,0.05
2018-01-14T11:49:46.042Z,0.01
2018-01-14T11:51:13.127Z,-0.04
2018-01-14T11:52:39.113Z,-0.09
2018-01-14T11:54:07.152Z,-0.11
2018-01-14T11:55:33.174Z,-0.16
2018-01-14T11:57:01.222Z,-0.15
2018-01-14T11:58:28.226Z,-0.13
2018-01-14T11:59:54.353Z,-0.10
2018-01-14T12:01:22.309Z,-0.15
2018-01-14T12:02:48.460Z,-0.17
2018-01-14T12:04:16.470Z,-0.17
2018-01-14T12:05:42.676Z,-0.16
2018-01-14T12:07:10.613Z,-0.14
2018-01-14T12:08:36.714Z,-0.15
2018-01-14T12:10:03.677Z,-0.09
2018-01-14T12:11:30.893Z,-0.11
2018-01-14T12:12:58.975Z,-0.11
2018-01-14T12:14:25.892Z,-0.15
2018-01-14T12:15:52.878Z,-0.20
2018-01-14T12:17:19.936Z,-0.20
2018-01-14T12:18:46.907Z,-0.19
2018-01-14T12:20:13.962Z,-0.22
2018-01-14T12:21:40.092Z,-0.20
2018-01-14T12:23:07.129Z,-0.21
2018-01-14T12:24:35.026Z,-0.20
2018-01-14T12:26:01.109Z,-0.25
2018-01-14T12:27:29.161Z,-0.28
2018-01-14T12:28:55.024Z,-0.32
2018-01-14T12:30:23.117Z,-0.34
2018-01-14T12:31:49.197Z,-0.36
2018-01-14T12:33:16.239Z,-0.34
2018-01-14T12:34:44.174Z,-0.37
2018-01-14T12:36:10.300Z,-0.42
2018-01-14T12:37:37.259Z,-0.45
2018-01-14T12:39:04.242Z,-0.50
2018-01-14T12:40:32.208Z,-0.52
2018-01-14T12:41:58.132Z,-0.52
2018-01-14T12:43:26.256Z,-0.53
2018-01-14T12:44:53.367Z,-0.51
2018-01-14T12:46:19.383Z,-0.49
2018-01-14T12:47:47.331Z,-0.43
2018-01-14T12:49:14.359Z,-0.44
2018-01-14T12:50:41.349Z,-0.50
2018-01-14T12:52:07.548Z,-0.50
2018-01-14T12:53:35.659Z,-0.49
2018-01-14T12:55:01.749Z,-0.49
2018-01-14T12:56:29.631Z,-0.52
2018-01-14T12:57:56.728Z,-0.52
2018-01-14T12:59:23.863Z,-0.52
2018-01-14T13:00:50.886Z,-0.57
2018-01-14T13:02:17.144Z,-0.60
2018-01-14T13:03:45.118Z,-0.61
2018-01-14T13:05:12.296Z,-0.60
2018-01-14T13:06:39.137Z,-0.59
2018-01-14T13:08:06.240Z,-0.55
2018-01-14T13:09:33.359Z,-0.59
2018-01-14T13:11:00.351Z,-0.57
2018-01-14T13:12:26.303Z,-0.55
2018-01-14T13:13:54.309Z,-0.55
2018-01-14T13:15:21.396Z,-0.56
2018-01-14T13:16:48.411Z,-0.53
2018-01-14T13:18:15.229Z,-0.56
2018-01-14T13:19:41.291Z,-0.52
2018-01-14T13:21:08.444Z,-0.58
2018-01-14T13:22:36.463Z,-0.64
2018-01-14T13:24:03.570Z,-0.64
2018-01-14T13:25:30.496Z,-0.70
2018-01-14T13:26:56.560Z,-0.66
2018-01-14T13:28:24.576Z,-0.66
2018-01-14T13:29:51.555Z,-0.65
2018-01-14T13:31:17.754Z,-0.69
2018-01-14T13:32:45.905Z,-0.68
2018-01-14T13:34:12.828Z,-0.68
2018-01-14T13:35:39.789Z,-0.67
2018-01-14T13:37:06.524Z,-0.71
2018-01-14T13:38:33.601Z,-0.76
2018-01-14T13:39:59.575Z,-0.75
2018-01-14T13:41:27.603Z,-0.76
2018-01-14T13:42:53.567Z,-0.75
2018-01-14T13:44:21.417Z,-0.71
2018-01-14T13:47:15.368Z,-0.48
2018-01-14T13:48:42.313Z,-0.43
2018-01-14T13:50:08.410Z,-0.43
2018-01-14T13:51:35.681Z,-0.43
2018-01-14T13:53:03.534Z,-0.47
2018-01-14T13:54:30.453Z,-0.46
2018-01-14T13:55:57.444Z,-0.48
2018-01-14T13:57:24.599Z,-0.48
2018-01-14T13:58:50.795Z,-0.47
2018-01-14T14:00:19.003Z,-0.48
2018-01-14T14:01:46.026Z,-0.43
2018-01-14T14:03:12.004Z,-0.36
2018-01-14T14:04:40.260Z,-0.39
2018-01-14T14:06:07.079Z,-0.42
2018-01-14T14:07:34.215Z,-0.43
2018-01-14T14:09:01.026Z,-0.45
2018-01-14T14:10:28.098Z,-0.52
2018-01-14T14:11:54.977Z,-0.54
2018-01-14T14:13:21.829Z,-0.57
2018-01-14T14:14:48.921Z,-0.62
2018-01-14T14:16:15.133Z,-0.62
2018-01-14T14:17:43.129Z,-0.59
2018-01-14T14:19:10.273Z,-0.55
2018-01-14T14:20:37.445Z,-0.57
2018-01-14T14:22:04.508Z,-0.53
2018-01-14T14:23:30.502Z,-0.55
2018-01-14T14:24:57.587Z,-0.58
2018-01-14T14:26:25.396Z,-0.57
2018-01-14T14:27:52.593Z,-0.62
2018-01-14T14:29:19.560Z,-0.69
2018-01-14T14:30:45.650Z,-0.73
2018-01-14T14:32:13.769Z,-0.74
2018-01-14T14:33:39.960Z,-0.75
2018-01-14T14:35:07.890Z,-0.80
2018-01-14T14:36:34.608Z,-0.81
2018-01-14T14:38:00.770Z,-0.81
2018-01-14T14:39:27.873Z,-0.81
2018-01-14T14:40:55.640Z,-0.78
2018-01-14T14:42:22.748Z,-0.79
2018-01-14T14:43:49.717Z,-0.78
2018-01-14T14:45:16.614Z,-0.80
2018-01-14T14:46:43.780Z,-0.80
2018-01-14T14:48:10.564Z,-0.81
2018-01-14T14:49:37.467Z,-0.78
2018-01-14T14:51:04.693Z,-0.76
2018-01-14T14:52:30.882Z,-0.73
2018-01-14T14:53:58.809Z,-0.71
2018-01-14T14:55:25.708Z,-0.69
2018-01-14T14:56:51.646Z,-0.69
2018-01-14T14:58:19.710Z,-0.66
2018-01-14T14:59:48.819Z,-0.62
2018-01-14T15:01:13.907Z,-0.60
2018-01-14T15:02:39.990Z,-0.63
2018-01-14T15:04:08.114Z,-0.58
2018-01-14T15:05:35.105Z,-0.54
2018-01-14T15:07:01.221Z,-0.57
2018-01-14T15:08:29.392Z,-0.56
2018-01-14T15:09:56.466Z,-0.59
2018-01-14T15:11:22.511Z,-0.56
2018-01-14T15:12:49.744Z,-0.56
2018-01-14T15:14:17.747Z,-0.61
2018-01-14T15:15:44.915Z,-0.62
2018-01-14T15:17:12.091Z,-0.63
2018-01-14T15:18:39.300Z,-0.63
2018-01-14T15:20:06.296Z,-0.68
2018-01-14T15:21:33.284Z,-0.73
2018-01-14T15:23:00.319Z,-0.71
2018-01-14T15:24:26.915Z,-0.71
2018-01-14T15:25:53.051Z,-0.75
2018-01-14T15:27:19.967Z,-0.73
2018-01-14T15:28:47.851Z,-0.74
2018-01-14T15:30:14.975Z,-0.79
2018-01-14T15:31:41.943Z,-0.80
2018-01-14T15:33:08.863Z,-0.84
2018-01-14T15:34:35.863Z,-0.84
2018-01-14T15:36:02.901Z,-0.86
2018-01-14T15:37:29.923Z,-0.87
2018-01-14T15:38:56.793Z,-0.83
2018-01-14T15:40:22.787Z,-0.81
2018-01-14T15:41:50.980Z,-0.81
2018-01-14T15:43:18.152Z,-0.80
2018-01-14T15:44:44.257Z,-0.75
2018-01-14T15:46:12.330Z,-0.73
2018-01-14T15:47:38.658Z,-0.72
2018-01-14T15:49:05.656Z,-0.72
2018-01-14T15:50:33.737Z,-0.71
2018-01-14T15:52:00.612Z,-0.66
2018-01-14T15:53:27.660Z,-0.60
2018-01-14T15:54:54.594Z,-0.57
2018-01-14T15:56:20.715Z,-0.55
2018-01-14T15:57:48.719Z,-0.55
2018-01-14T15:59:15.706Z,-0.54
2018-01-14T16:00:42.572Z,-0.52
2018-01-14T16:02:09.807Z,-0.56
2018-01-14T16:03:36.891Z,-0.57
2018-01-14T16:05:03.669Z,-0.63
2018-01-14T16:06:29.747Z,-0.68
2018-01-14T16:07:57.514Z,-0.75
2018-01-14T16:09:24.655Z,-0.82
2018-01-14T16:10:50.751Z,-0.86
2018-01-14T16:12:17.988Z,-0.90
2018-01-14T16:13:45.919Z,-0.92
2018-01-14T16:15:12.400Z,-0.91
2018-01-14T16:16:38.282Z,-0.88
2018-01-14T16:18:06.496Z,-0.82
2018-01-14T16:19:33.558Z,-0.80
2018-01-14T16:20:59.655Z,-0.81
2018-01-14T16:22:27.531Z,-0.76
2018-01-14T16:23:54.593Z,-0.74
2018-01-14T16:25:20.500Z,-0.76
2018-01-14T16:26:48.488Z,-0.76
2018-01-14T16:28:15.423Z,-0.84
2018-01-14T16:29:42.654Z,-0.86
2018-01-14T16:31:09.851Z,-0.85
2018-01-14T16:32:35.702Z,-0.89
2018-01-14T16:34:03.807Z,-0.90
2018-01-14T16:35:30.736Z,-0.91
2018-01-14T16:36:57.532Z,-0.91
2018-01-14T16:38:24.295Z,-0.95
2018-01-14T16:39:50.391Z,-0.98
2018-01-14T16:41:17.690Z,-1.01
2018-01-14T16:42:45.673Z,-1.04
2018-01-14T16:44:11.799Z,-1.09
2018-01-14T16:45:39.927Z,-1.10
2018-01-14T16:47:07.108Z,-1.11
2018-01-14T16:48:34.015Z,-1.13
2018-01-14T16:50:01.068Z,-1.16
2018-01-14T16:51:26.789Z,-1.17
2018-01-14T16:52:53.858Z,-1.13
2018-01-14T16:54:21.756Z,-1.16
2018-01-14T16:55:48.746Z,-1.18
2018-01-14T16:57:15.836Z,-1.17
2018-01-14T16:58:41.833Z,-1.17
2018-01-14T17:00:08.890Z,-1.14
2018-01-14T17:01:35.830Z,-1.13
2018-01-14T17:03:03.827Z,-1.15
2018-01-14T17:04:30.604Z,-1.15
2018-01-14T17:05:56.083Z,-1.12
2018-01-14T17:07:24.269Z,-1.13
2018-01-14T17:08:50.970Z,-1.12
2018-01-14T17:10:17.089Z,-1.08
2018-01-14T17:11:45.021Z,-1.03
2018-01-14T17:13:11.058Z,-0.97
2018-01-14T17:14:38.763Z,-0.96
2018-01-14T17:16:05.958Z,-0.97
2018-01-14T17:17:32.932Z,-0.94
2018-01-14T17:18:58.926Z,-1.03
2018-01-14T17:20:26.734Z,-1.09
2018-01-14T17:21:53.904Z,-1.16
2018-01-14T17:23:20.820Z,-1.21
2018-01-14T17:24:47.829Z,-1.26
2018-01-14T17:26:13.963Z,-1.23
2018-01-14T17:27:41.879Z,-1.25
2018-01-14T17:29:08.975Z,-1.23
2018-01-14T17:30:36.202Z,-1.21
2018-01-14T17:32:03.278Z,-1.19
2018-01-14T17:33:30.265Z,-1.19
2018-01-14T17:34:57.284Z,-1.21
2018-01-14T17:36:23.372Z,-1.21
2018-01-14T17:37:51.397Z,-1.26
2018-01-14T17:39:18.302Z,-1.29
2018-01-14T17:40:45.194Z,-1.33
2018-01-14T17:42:12.218Z,-1.39
2018-01-14T17:43:38.481Z,-1.42
2018-01-14T17:45:05.587Z,-1.43
2018-01-14T17:46:33.518Z,-1.45
2018-01-14T17:48:00.612Z,-1.45
2018-01-14T17:49:26.426Z,-1.47
2018-01-14T17:50:54.506Z,-1.49
2018-01-14T17:52:21.502Z,-1.51
2018-01-14T17:53:47.153Z,-1.50
2018-01-14T17:55:14.967Z,-1.51
2018-01-14T17:56:40.970Z,-1.59
2018-01-14T17:58:08.849Z,-1.61
2018-01-14T17:59:35.713Z,-1.63
2018-01-14T18:01:02.688Z,-1.65
2018-01-14T18:02:29.837Z,-1.67
2018-01-14T18:03:56.683Z,-1.68
2018-01-14T18:05:22.532Z,-1.69
2018-01-14T18:06:50.470Z,-1.66
2018-01-14T18:08:17.516Z,-1.65
2018-01-14T18:09:43.502Z,-1.63
2018-01-14T18:11:10.619Z,-1.65
2018-01-14T18:12:37.738Z,-1.69
2018-01-14T18:14:05.648Z,-1.70
2018-01-14T18:15:31.656Z,-1.63
2018-01-14T18:16:59.652Z,-1.63
2018-01-14T18:18:26.255Z,-1.61
2018-01-14T18:19:53.342Z,-1.62
2018-01-14T18:21:19.503Z,-1.63
2018-01-14T18:22:47.200Z,-1.70
2018-01-14T18:24:14.026Z,-1.73
2018-01-14T18:25:40.999Z,-1.76
2018-01-14T18:27:07.767Z,-1.76
2018-01-14T18:28:34.735Z,-1.79
2018-01-14T18:30:01.645Z,-1.79
2018-01-14T18:31:28.465Z,-1.78
2018-01-14T18:32:54.809Z,-1.80
2018-01-14T18:34:21.801Z,-1.78
2018-01-14T18:35:48.936Z,-1.74
2018-01-14T18:37:16.793Z,-1.74
2018-01-14T18:38:42.758Z,-1.72
2018-01-14T18:40:10.673Z,-1.69
2018-01-14T18:41:37.785Z,-1.72
2018-01-14T18:43:04.821Z,-1.68
2018-01-14T18:44:30.755Z,-1.66
2018-01-14T18:45:58.789Z,-1.65
2018-01-14T18:47:24.632Z,-1.71
2018-01-14T18:48:51.713Z,-1.73
2018-01-14T18:50:19.662Z,-1.71
2018-01-14T18:51:46.712Z,-1.70
2018-01-14T18:53:13.646Z,-1.64